Time;durP1;ratioP1;P1;durP2;ratioP2;P2;SDS_P1;SDS_P2;PMS_P1;PMS_P2;Temp;Humidity;BMP_temperature;BMP_pressure;BME280_temperature;BME280_humidity;BME280_pressure;Samples;Min_cycle;Max_cycle;Signal;HPM_P1;HPM_P2
2023/12/25 00:01:28;;;;;;;;;;;18.00;64.10;;;;;;7393299;19;1850;-73
2023/12/25 00:03:53;;;;;;;;;;;18.00;64.20;;;;;;7396659;19;1491;-73
2023/12/25 00:06:19;;;;;;;;;;;18.00;64.30;;;;;;7397204;19;1546;-73
2023/12/25 00:08:44;;;;;;;;;;;17.90;64.20;;;;;;7392807;19;1388;-73
2023/12/25 00:11:10;;;;;;;;;;;17.90;64.20;;;;;;7396908;19;1669;-73
2023/12/25 00:13:35;;;;;;;;;;;17.90;64.30;;;;;;7395969;19;1521;-73
2023/12/25 00:16:01;;;;;;;;;;;17.90;64.20;;;;;;7395000;19;4289;-72
2023/12/25 00:18:26;;;;;;;;;;;17.80;64.10;;;;;;7393759;19;789;-73
2023/12/25 00:20:52;;;;;;;;;;;17.80;64.10;;;;;;7394695;19;2424;-73
2023/12/25 00:23:17;;;;;;;;;;;17.80;64.10;;;;;;7393329;19;2673;-72
2023/12/25 00:25:43;;;;;;;;;;;17.80;64.10;;;;;;7395318;19;1449;-73
2023/12/25 00:28:08;;;;;;;;;;;17.80;64.20;;;;;;7396210;19;1515;-73
2023/12/25 00:30:33;;;;;;;;;;;17.70;64.00;;;;;;7394870;19;4138;-73
2023/12/25 00:32:59;;;;;;;;;;;17.70;64.00;;;;;;7395899;19;1438;-73
2023/12/25 00:35:24;;;;;;;;;;;17.70;64.10;;;;;;7393074;19;859;-72
2023/12/25 00:37:51;;;;;;;;;;;17.70;64.10;;;;;;7395231;19;3046;-73
2023/12/25 00:40:16;;;;;;;;;;;17.70;64.20;;;;;;7392568;19;1838;-73
2023/12/25 00:42:41;;;;;;;;;;;17.70;64.30;;;;;;7397013;19;1632;-73
2023/12/25 00:45:07;;;;;;;;;;;17.70;64.10;;;;;;7394049;19;3535;-73
2023/12/25 00:47:32;;;;;;;;;;;17.60;64.00;;;;;;7396475;19;1966;-73
2023/12/25 00:49:58;;;;;;;;;;;17.60;64.20;;;;;;7394629;19;820;-73
2023/12/25 00:52:23;;;;;;;;;;;17.60;64.20;;;;;;7394246;19;4166;-73
2023/12/25 00:54:49;;;;;;;;;;;17.60;64.00;;;;;;7396492;19;1588;-73
2023/12/25 00:57:14;;;;;;;;;;;17.60;64.20;;;;;;7391458;19;820;-73
2023/12/25 00:59:40;;;;;;;;;;;17.50;64.20;;;;;;7392899;19;3405;-73
2023/12/25 01:02:05;;;;;;;;;;;17.50;64.20;;;;;;7395116;19;1553;-73
2023/12/25 01:04:30;;;;;;;;;;;17.50;64.00;;;;;;7392606;19;1065;-73
2023/12/25 01:06:56;;;;;;;;;;;17.50;64.20;;;;;;7393921;19;3852;-72
2023/12/25 01:09:21;;;;;;;;;;;17.50;64.30;;;;;;7390614;19;1508;-73
2023/12/25 01:11:47;;;;;;;;;;;17.40;64.10;;;;;;7397341;19;1823;-73
2023/12/25 01:14:12;;;;;;;;;;;17.50;64.30;;;;;;7393504;19;3176;-73
2023/12/25 01:16:38;;;;;;;;;;;17.40;64.10;;;;;;7394808;19;1376;-73
2023/12/25 01:19:03;;;;;;;;;;;17.40;64.20;;;;;;7392086;19;1745;-73
2023/12/25 01:21:29;;;;;;;;;;;17.40;64.20;;;;;;7391955;19;3127;-73
2023/12/25 01:23:54;;;;;;;;;;;17.40;64.20;;;;;;7391403;19;970;-73
2023/12/25 01:26:20;;;;;;;;;;;17.30;64.10;;;;;;7393419;19;1457;-73
2023/12/25 01:28:45;;;;;;;;;;;17.30;64.30;;;;;;7394494;19;4069;-73
2023/12/25 01:31:11;;;;;;;;;;;17.30;64.20;;;;;;7394596;19;1502;-73
2023/12/25 01:33:36;;;;;;;;;;;17.30;64.30;;;;;;7392862;19;3045;-72
2023/12/25 01:36:01;;;;;;;;;;;17.30;64.00;;;;;;7397039;19;3128;-73
2023/12/25 01:38:27;;;;;;;;;;;17.30;64.00;;;;;;7393977;19;1476;-73
2023/12/25 01:40:52;;;;;;;;;;;17.30;64.10;;;;;;7391174;19;4516;-73
2023/12/25 01:43:18;;;;;;;;;;;17.30;64.00;;;;;;7393864;19;3117;-73
2023/12/25 01:45:43;;;;;;;;;;;17.30;64.10;;;;;;7394623;19;1507;-72
2023/12/25 01:48:09;;;;;;;;;;;17.30;64.20;;;;;;7391794;19;3558;-73
2023/12/25 01:50:34;;;;;;;;;;;17.20;64.10;;;;;;7398055;19;3120;-72
2023/12/25 01:53:00;;;;;;;;;;;17.20;64.10;;;;;;7398361;19;1217;-73
2023/12/25 01:55:25;;;;;;;;;;;17.20;64.20;;;;;;7397668;19;2738;-73
2023/12/25 01:57:51;;;;;;;;;;;17.20;64.10;;;;;;7396566;19;3766;-73
2023/12/25 02:00:17;;;;;;;;;;;17.20;64.30;;;;;;7399768;19;2503;-73
2023/12/25 02:02:42;;;;;;;;;;;17.20;64.20;;;;;;7399393;19;3797;-72
2023/12/25 02:05:08;;;;;;;;;;;17.20;64.20;;;;;;7401653;19;1669;-73
2023/12/25 02:07:34;;;;;;;;;;;17.20;64.10;;;;;;7398304;19;1891;-73
2023/12/25 02:10:00;;;;;;;;;;;17.20;64.10;;;;;;7396715;19;3889;-73
2023/12/25 02:12:25;;;;;;;;;;;17.20;64.10;;;;;;7402726;19;2677;-73
2023/12/25 02:14:50;;;;;;;;;;;17.20;64.00;;;;;;7398928;19;1549;-73
2023/12/25 02:17:16;;;;;;;;;;;17.30;63.70;;;;;;7399525;19;3089;-73
2023/12/25 02:19:43;;;;;;;;;;;17.40;63.70;;;;;;7400067;19;3211;-73
2023/12/25 02:22:09;;;;;;;;;;;17.50;63.20;;;;;;7397529;19;884;-73
2023/12/25 02:24:39;;;;;;;;;;;17.70;62.90;;;;;;7396374;19;3226;-73
2023/12/25 02:27:04;;;;;;;;;;;17.90;62.30;;;;;;7400111;19;1499;-73
2023/12/25 02:29:30;;;;;;;;;;;18.10;61.60;;;;;;7400823;19;1483;-73
2023/12/25 02:31:55;;;;;;;;;;;18.30;61.10;;;;;;7398958;19;3029;-73
2023/12/25 02:34:21;;;;;;;;;;;18.40;60.70;;;;;;7398100;19;1452;-73
2023/12/25 02:36:46;;;;;;;;;;;18.60;60.20;;;;;;7396761;19;966;-73
2023/12/25 02:39:11;;;;;;;;;;;18.60;59.80;;;;;;7396131;19;3118;-73
2023/12/25 02:41:37;;;;;;;;;;;18.70;59.60;;;;;;7399916;19;3288;-73
2023/12/25 02:44:03;;;;;;;;;;;18.80;59.40;;;;;;7399728;19;1452;-73
2023/12/25 02:46:28;;;;;;;;;;;18.90;59.30;;;;;;7396884;19;2573;-73
2023/12/25 02:48:54;;;;;;;;;;;18.90;59.10;;;;;;7400361;19;1235;-73
2023/12/25 02:51:19;;;;;;;;;;;19.00;59.00;;;;;;7398471;19;1513;-73
2023/12/25 02:53:44;;;;;;;;;;;19.00;58.70;;;;;;7397750;19;2717;-73
2023/12/25 02:56:10;;;;;;;;;;;19.10;58.60;;;;;;7396975;19;1545;-73
2023/12/25 02:58:35;;;;;;;;;;;19.10;58.60;;;;;;7397104;19;1474;-73
2023/12/25 03:01:01;;;;;;;;;;;19.10;58.60;;;;;;7394760;19;2726;-73
2023/12/25 03:03:26;;;;;;;;;;;19.10;58.60;;;;;;7396054;19;915;-73
2023/12/25 03:05:51;;;;;;;;;;;19.10;58.70;;;;;;7398409;19;1536;-73
2023/12/25 03:08:17;;;;;;;;;;;19.00;58.80;;;;;;7393843;19;4244;-73
2023/12/25 03:10:42;;;;;;;;;;;19.00;58.90;;;;;;7396833;19;1461;-72
2023/12/25 03:13:08;;;;;;;;;;;19.00;59.00;;;;;;7395313;19;1472;-73
2023/12/25 03:15:34;;;;;;;;;;;18.90;59.00;;;;;;7397536;19;3804;-73
2023/12/25 03:17:59;;;;;;;;;;;18.90;59.20;;;;;;7398222;19;1429;-73
2023/12/25 03:20:25;;;;;;;;;;;18.80;59.20;;;;;;7398901;19;1842;-73
2023/12/25 03:22:50;;;;;;;;;;;18.80;59.30;;;;;;7394866;19;4524;-73
2023/12/25 03:25:16;;;;;;;;;;;18.70;59.40;;;;;;7395419;19;1491;-73
2023/12/25 03:27:41;;;;;;;;;;;18.70;59.50;;;;;;7394534;19;765;-73
2023/12/25 03:30:07;;;;;;;;;;;18.70;59.40;;;;;;7395294;19;2918;-73
2023/12/25 03:32:34;;;;;;;;;;;18.60;59.60;;;;;;7398770;19;1075;-73
2023/12/25 03:34:59;;;;;;;;;;;18.60;59.50;;;;;;7395020;19;1293;-73
2023/12/25 03:37:25;;;;;;;;;;;18.60;59.70;;;;;;7397233;19;4104;-73
2023/12/25 03:39:51;;;;;;;;;;;18.50;59.70;;;;;;7394882;19;1822;-73
2023/12/25 03:42:16;;;;;;;;;;;18.50;59.70;;;;;;7397168;19;1433;-73
2023/12/25 03:44:41;;;;;;;;;;;18.40;59.60;;;;;;7394625;19;4047;-73
2023/12/25 03:47:07;;;;;;;;;;;18.40;59.60;;;;;;7399211;19;1358;-73
2023/12/25 03:49:32;;;;;;;;;;;18.50;59.70;;;;;;7397740;19;1267;-73
2023/12/25 03:51:58;;;;;;;;;;;18.40;59.60;;;;;;7396237;19;2888;-73
2023/12/25 03:54:23;;;;;;;;;;;18.40;59.50;;;;;;7397602;19;1612;-73
2023/12/25 03:56:49;;;;;;;;;;;18.40;59.60;;;;;;7394914;19;2284;-73
2023/12/25 03:59:14;;;;;;;;;;;18.40;59.70;;;;;;7394205;19;3718;-73
2023/12/25 04:01:39;;;;;;;;;;;18.40;59.80;;;;;;7398323;19;1515;-73
2023/12/25 04:04:05;;;;;;;;;;;18.40;59.70;;;;;;7396729;19;1491;-73
2023/12/25 04:06:30;;;;;;;;;;;18.40;59.70;;;;;;7395175;19;3409;-74
2023/12/25 04:08:56;;;;;;;;;;;18.40;59.60;;;;;;7394432;19;1589;-73
2023/12/25 04:11:22;;;;;;;;;;;18.40;59.70;;;;;;7396549;19;1467;-73
2023/12/25 04:13:53;;;;;;;;;;;18.40;59.60;;;;;;7392795;19;3655;-73
2023/12/25 04:16:20;;;;;;;;;;;18.40;59.50;;;;;;7397242;19;1613;-73
2023/12/25 04:18:46;;;;;;;;;;;18.40;59.60;;;;;;7397399;19;1519;-73
2023/12/25 04:21:33;;;;;;;;;;;18.40;59.80;;;;;;7394303;19;4207;-73
2023/12/25 04:23:58;;;;;;;;;;;18.40;59.80;;;;;;7396268;19;1553;-73
2023/12/25 04:26:24;;;;;;;;;;;18.40;59.60;;;;;;7397772;19;1656;-73
2023/12/25 04:28:50;;;;;;;;;;;18.40;59.50;;;;;;7394810;19;3372;-73
2023/12/25 04:31:15;;;;;;;;;;;18.40;59.40;;;;;;7395147;19;1587;-73
2023/12/25 04:33:41;;;;;;;;;;;18.40;59.30;;;;;;7396778;19;1510;-73
2023/12/25 04:36:06;;;;;;;;;;;18.40;59.10;;;;;;7395495;19;3221;-72
2023/12/25 04:38:32;;;;;;;;;;;18.40;58.80;;;;;;7395275;19;1441;-73
2023/12/25 04:40:57;;;;;;;;;;;18.40;58.70;;;;;;7393633;19;1846;-73
2023/12/25 04:43:23;;;;;;;;;;;18.40;58.40;;;;;;7395647;19;3280;-73
2023/12/25 04:45:48;;;;;;;;;;;18.40;58.10;;;;;;7397262;19;1424;-73
2023/12/25 04:48:14;;;;;;;;;;;18.40;57.90;;;;;;7394579;19;978;-73
2023/12/25 04:50:40;;;;;;;;;;;18.50;57.70;;;;;;7399418;19;3776;-73
2023/12/25 04:53:05;;;;;;;;;;;18.40;57.40;;;;;;7396139;19;1486;-73
2023/12/25 04:55:31;;;;;;;;;;;18.40;57.20;;;;;;7398537;19;1408;-73
2023/12/25 04:57:57;;;;;;;;;;;18.40;57.20;;;;;;7396236;19;5229;-73
2023/12/25 05:00:22;;;;;;;;;;;18.40;56.90;;;;;;7392416;19;1834;-73
2023/12/25 05:02:48;;;;;;;;;;;18.50;56.90;;;;;;7395040;19;2607;-73
2023/12/25 05:05:13;;;;;;;;;;;18.40;56.70;;;;;;7394660;19;3862;-73
2023/12/25 05:07:39;;;;;;;;;;;18.50;56.70;;;;;;7394582;19;1348;-73
2023/12/25 05:10:04;;;;;;;;;;;18.50;56.70;;;;;;7392552;19;1482;-73
2023/12/25 05:12:30;;;;;;;;;;;18.50;56.70;;;;;;7393701;19;3922;-73
2023/12/25 05:14:55;;;;;;;;;;;18.50;56.70;;;;;;7391068;19;3095;-73
2023/12/25 05:17:21;;;;;;;;;;;18.50;56.80;;;;;;7387370;19;3454;-73
2023/12/25 05:19:46;;;;;;;;;;;18.50;56.80;;;;;;7386781;19;4657;-73
2023/12/25 05:22:12;;;;;;;;;;;18.40;56.90;;;;;;7395630;19;3582;-73
2023/12/25 05:24:38;;;;;;;;;;;18.40;57.00;;;;;;7395199;19;3082;-73
2023/12/25 05:27:03;;;;;;;;;;;18.30;57.00;;;;;;7402739;19;1269;-73
2023/12/25 05:29:29;;;;;;;;;;;18.30;57.20;;;;;;7401438;19;1600;-73
2023/12/25 05:31:54;;;;;;;;;;;18.30;57.40;;;;;;7401158;19;1268;-73
2023/12/25 05:34:20;;;;;;;;;;;18.30;57.40;;;;;;7398602;19;3568;-73
2023/12/25 05:36:45;;;;;;;;;;;18.20;57.40;;;;;;7402044;19;1426;-73
2023/12/25 05:39:10;;;;;;;;;;;18.20;57.60;;;;;;7402559;19;3537;-73
2023/12/25 05:41:36;;;;;;;;;;;18.20;57.80;;;;;;7399930;19;3217;-73
2023/12/25 05:44:01;;;;;;;;;;;18.20;57.80;;;;;;7401100;19;1425;-73
2023/12/25 05:46:27;;;;;;;;;;;18.10;57.80;;;;;;7399485;19;2906;-73
2023/12/25 05:48:52;;;;;;;;;;;18.10;57.80;;;;;;7401479;19;1857;-73
2023/12/25 05:51:18;;;;;;;;;;;18.10;58.00;;;;;;7401321;19;1547;-73
2023/12/25 05:53:43;;;;;;;;;;;18.10;58.00;;;;;;7402588;19;2849;-73
2023/12/25 05:56:09;;;;;;;;;;;18.10;57.90;;;;;;7404133;19;3284;-73
2023/12/25 05:58:34;;;;;;;;;;;18.10;57.80;;;;;;7398194;19;2021;-73
2023/12/25 06:01:00;;;;;;;;;;;18.20;57.90;;;;;;7398528;19;4242;-73
2023/12/25 06:03:26;;;;;;;;;;;18.20;57.70;;;;;;7401219;19;3144;-73
2023/12/25 06:05:52;;;;;;;;;;;18.20;57.70;;;;;;7398190;19;899;-73
2023/12/25 06:08:17;;;;;;;;;;;18.20;57.60;;;;;;7394970;19;2934;-73
2023/12/25 06:10:43;;;;;;;;;;;18.20;57.60;;;;;;7401743;19;1480;-72
2023/12/25 06:13:08;;;;;;;;;;;18.20;57.70;;;;;;7403272;19;1511;-73
2023/12/25 06:15:34;;;;;;;;;;;18.20;57.70;;;;;;7396826;19;4267;-73
2023/12/25 06:17:59;;;;;;;;;;;18.20;57.70;;;;;;7400897;19;3141;-73
2023/12/25 06:20:25;;;;;;;;;;;18.30;57.70;;;;;;7399835;19;1850;-73
2023/12/25 06:22:50;;;;;;;;;;;18.30;57.70;;;;;;7396101;19;3596;-73
2023/12/25 06:25:16;;;;;;;;;;;18.30;57.70;;;;;;7401833;19;1002;-73
2023/12/25 06:27:41;;;;;;;;;;;18.20;58.30;;;;;;7396704;19;818;-73
2023/12/25 06:30:07;;;;;;;;;;;18.20;57.70;;;;;;7396372;19;2899;-73
2023/12/25 06:32:32;;;;;;;;;;;18.30;57.70;;;;;;7402940;19;990;-73
2023/12/25 06:34:58;;;;;;;;;;;18.30;57.60;;;;;;7401488;19;1405;-73
2023/12/25 06:37:23;;;;;;;;;;;18.30;57.50;;;;;;7394131;19;2746;-73
2023/12/25 06:39:48;;;;;;;;;;;18.30;57.40;;;;;;7400888;19;3220;-73
2023/12/25 06:42:14;;;;;;;;;;;18.40;57.50;;;;;;7398532;19;1525;-73
2023/12/25 06:44:39;;;;;;;;;;;18.30;57.40;;;;;;7396423;19;2753;-73
2023/12/25 06:47:05;;;;;;;;;;;18.40;57.50;;;;;;7399895;19;2352;-73
2023/12/25 06:49:30;;;;;;;;;;;18.30;57.50;;;;;;7396871;19;982;-73
2023/12/25 06:51:56;;;;;;;;;;;18.30;57.60;;;;;;7399174;19;4154;-73
2023/12/25 06:54:22;;;;;;;;;;;18.30;57.60;;;;;;7399640;19;3200;-73
2023/12/25 06:56:48;;;;;;;;;;;18.30;57.60;;;;;;7398087;19;1523;-73
2023/12/25 06:59:13;;;;;;;;;;;18.30;57.70;;;;;;7396739;19;3603;-73
2023/12/25 07:01:39;;;;;;;;;;;18.30;57.70;;;;;;7395704;19;3571;-73
2023/12/25 07:04:04;;;;;;;;;;;18.30;57.60;;;;;;7398870;19;3582;-73
2023/12/25 07:06:30;;;;;;;;;;;18.30;57.70;;;;;;7396753;19;2806;-73
2023/12/25 07:08:55;;;;;;;;;;;18.20;57.70;;;;;;7396921;19;1475;-73
2023/12/25 07:11:21;;;;;;;;;;;18.20;57.80;;;;;;7400255;19;1565;-73
2023/12/25 07:13:46;;;;;;;;;;;18.20;58.00;;;;;;7394996;19;2890;-73
2023/12/25 07:16:25;;;;;;;;;;;18.20;58.00;;;;;;7398578;19;1376;-73
2023/12/25 07:18:51;;;;;;;;;;;18.10;57.90;;;;;;7399036;19;1477;-73
2023/12/25 07:21:17;;;;;;;;;;;18.10;58.00;;;;;;7393236;19;4253;-73
2023/12/25 07:23:42;;;;;;;;;;;18.10;58.20;;;;;;7395810;19;835;-73
2023/12/25 07:26:08;;;;;;;;;;;18.10;58.20;;;;;;7394420;19;1227;-73
2023/12/25 07:28:33;;;;;;;;;;;18.10;58.20;;;;;;7395344;19;3699;-73
2023/12/25 07:31:00;;;;;;;;;;;18.10;58.20;;;;;;7399581;19;1600;-73
2023/12/25 07:33:25;;;;;;;;;;;18.00;58.30;;;;;;7395100;19;874;-73
2023/12/25 07:35:52;;;;;;;;;;;18.00;58.30;;;;;;7395241;19;2967;-73
2023/12/25 07:38:17;;;;;;;;;;;18.10;58.30;;;;;;7396967;19;1235;-73
2023/12/25 07:40:43;;;;;;;;;;;18.00;58.10;;;;;;7393427;19;1841;-73
2023/12/25 07:43:10;;;;;;;;;;;18.00;58.20;;;;;;7396831;19;2525;-73
2023/12/25 07:45:38;;;;;;;;;;;18.00;58.30;;;;;;7399208;19;1601;-72
2023/12/25 07:48:03;;;;;;;;;;;18.10;58.20;;;;;;7393388;19;1262;-73
2023/12/25 07:50:29;;;;;;;;;;;18.10;58.20;;;;;;7394358;19;3216;-73
2023/12/25 07:52:54;;;;;;;;;;;18.10;58.00;;;;;;7399403;19;1640;-73
2023/12/25 07:55:20;;;;;;;;;;;18.20;57.90;;;;;;7399751;19;1437;-73
2023/12/25 07:57:45;;;;;;;;;;;18.20;57.90;;;;;;7395888;19;3760;-73
2023/12/25 08:00:11;;;;;;;;;;;18.20;57.70;;;;;;7390373;19;2884;-73
2023/12/25 08:02:36;;;;;;;;;;;18.30;57.70;;;;;;7396914;19;1791;-73
2023/12/25 08:05:02;;;;;;;;;;;18.30;57.70;;;;;;7393833;19;4246;-73
2023/12/25 08:07:28;;;;;;;;;;;18.30;57.60;;;;;;7395065;19;2154;-73
2023/12/25 08:09:53;;;;;;;;;;;18.30;57.60;;;;;;7392731;19;1165;-72
2023/12/25 08:12:19;;;;;;;;;;;18.30;57.60;;;;;;7393385;19;4271;-73
2023/12/25 08:14:44;;;;;;;;;;;18.30;57.60;;;;;;7396972;19;3053;-73
2023/12/25 08:17:10;;;;;;;;;;;18.30;57.70;;;;;;7392137;19;3691;-72
2023/12/25 08:19:35;;;;;;;;;;;18.30;57.70;;;;;;7395336;19;3012;-73
2023/12/25 08:22:00;;;;;;;;;;;18.30;57.70;;;;;;7395324;19;1538;-73
2023/12/25 08:24:26;;;;;;;;;;;18.30;57.70;;;;;;7394603;19;1133;-73
2023/12/25 08:26:51;;;;;;;;;;;18.30;57.70;;;;;;7393960;19;3308;-73
2023/12/25 08:29:18;;;;;;;;;;;18.20;57.70;;;;;;7396961;19;1650;-73
2023/12/25 08:31:43;;;;;;;;;;;18.30;57.70;;;;;;7396723;19;1421;-73
2023/12/25 08:34:09;;;;;;;;;;;18.30;57.70;;;;;;7393194;19;3534;-73
2023/12/25 08:36:34;;;;;;;;;;;18.20;57.60;;;;;;7396192;19;3928;-73
2023/12/25 08:39:00;;;;;;;;;;;18.20;57.70;;;;;;7393002;19;4335;-73
2023/12/25 08:41:26;;;;;;;;;;;18.30;57.80;;;;;;7392421;19;3135;-73
2023/12/25 08:43:51;;;;;;;;;;;18.20;57.70;;;;;;7395127;19;1425;-72
2023/12/25 08:46:17;;;;;;;;;;;18.20;57.80;;;;;;7397155;19;1357;-72
2023/12/25 08:48:42;;;;;;;;;;;18.10;57.90;;;;;;7393302;19;3138;-73
2023/12/25 08:51:07;;;;;;;;;;;18.10;58.00;;;;;;7397914;19;1587;-72
2023/12/25 08:53:33;;;;;;;;;;;18.10;58.10;;;;;;7397651;19;1516;-73
2023/12/25 08:56:00;;;;;;;;;;;18.00;58.10;;;;;;7393602;19;3513;-73
2023/12/25 08:58:26;;;;;;;;;;;18.00;58.20;;;;;;7394652;19;1673;-73
2023/12/25 09:00:52;;;;;;;;;;;18.00;58.10;;;;;;7400501;19;1814;-73
2023/12/25 09:03:17;;;;;;;;;;;18.10;58.20;;;;;;7401275;19;4101;-72
2023/12/25 09:05:43;;;;;;;;;;;18.00;58.10;;;;;;7402783;19;2590;-73
2023/12/25 09:08:09;;;;;;;;;;;18.00;58.20;;;;;;7402652;19;1308;-73
2023/12/25 09:10:35;;;;;;;;;;;18.00;58.30;;;;;;7402428;19;4247;-73
2023/12/25 09:13:00;;;;;;;;;;;18.10;58.20;;;;;;7402815;19;1481;-73
2023/12/25 09:15:26;;;;;;;;;;;18.10;58.00;;;;;;7403568;19;1444;-73
2023/12/25 09:17:51;;;;;;;;;;;18.10;58.00;;;;;;7401400;19;2865;-73
2023/12/25 09:20:17;;;;;;;;;;;18.20;58.00;;;;;;7399432;19;3412;-72
2023/12/25 09:22:44;;;;;;;;;;;18.20;57.90;;;;;;7400093;19;1424;-72
2023/12/25 09:25:09;;;;;;;;;;;18.20;57.90;;;;;;7402962;19;3841;-73
2023/12/25 09:27:35;;;;;;;;;;;18.20;57.80;;;;;;7402977;19;1566;-73
2023/12/25 09:30:00;;;;;;;;;;;18.20;57.70;;;;;;7403113;19;1666;-73
2023/12/25 09:32:27;;;;;;;;;;;18.30;57.80;;;;;;7401990;19;2788;-73
2023/12/25 09:34:52;;;;;;;;;;;18.30;57.60;;;;;;7402726;19;1532;-73
2023/12/25 09:37:18;;;;;;;;;;;18.30;57.50;;;;;;7402465;19;2773;-73
2023/12/25 09:39:43;;;;;;;;;;;18.30;57.40;;;;;;7401147;19;4183;-73
2023/12/25 09:42:09;;;;;;;;;;;18.30;57.50;;;;;;7400367;19;1501;-73
2023/12/25 09:44:35;;;;;;;;;;;18.30;57.60;;;;;;7402161;19;2568;-73
2023/12/25 09:47:00;;;;;;;;;;;18.20;57.70;;;;;;7402534;19;3020;-73
2023/12/25 09:49:26;;;;;;;;;;;18.20;57.90;;;;;;7399311;19;1290;-73
2023/12/25 09:51:52;;;;;;;;;;;18.20;57.90;;;;;;7400849;19;1610;-73
2023/12/25 09:54:18;;;;;;;;;;;18.20;57.80;;;;;;7401569;19;3010;-73
2023/12/25 09:56:43;;;;;;;;;;;18.20;57.70;;;;;;7398446;19;1602;-73
2023/12/25 09:59:09;;;;;;;;;;;18.20;57.60;;;;;;7398824;19;3130;-73
2023/12/25 10:01:34;;;;;;;;;;;18.30;57.60;;;;;;7399628;19;3182;-73
2023/12/25 10:04:00;;;;;;;;;;;18.30;57.60;;;;;;7400294;19;1538;-73
2023/12/25 10:06:25;;;;;;;;;;;18.30;57.50;;;;;;7398056;19;2834;-73
2023/12/25 10:08:51;;;;;;;;;;;18.30;57.60;;;;;;7398892;19;3138;-73
2023/12/25 10:11:16;;;;;;;;;;;18.20;57.60;;;;;;7397143;19;1530;-73
2023/12/25 10:13:43;;;;;;;;;;;18.20;57.60;;;;;;7387490;19;6308;-73
2023/12/25 10:16:09;;;;;;;;;;;18.20;57.90;;;;;;7399119;19;2714;-73
2023/12/25 10:18:38;;;;;;;;;;;18.20;57.80;;;;;;7397426;19;2860;-73
2023/12/25 10:21:04;;;;;;;;;;;18.20;57.90;;;;;;7396531;19;1860;-73
2023/12/25 10:23:29;;;;;;;;;;;18.10;57.90;;;;;;7395160;19;4258;-72
2023/12/25 10:25:56;;;;;;;;;;;18.10;58.00;;;;;;7398748;19;2856;-73
2023/12/25 10:28:24;;;;;;;;;;;18.10;58.00;;;;;;7400345;19;1602;-73
2023/12/25 10:31:00;;;;;;;;;;;18.10;58.10;;;;;;7399159;19;3145;-73
2023/12/25 10:33:25;;;;;;;;;;;18.10;58.10;;;;;;7400477;19;1759;-73
2023/12/25 10:36:04;;;;;;;;;;;18.10;58.20;;;;;;7400093;19;1396;-73
2023/12/25 10:38:34;;;;;;;;;;;18.10;58.20;;;;;;7399440;19;1459;-72
2023/12/25 10:41:18;;;;;;;;;;;18.00;58.20;;;;;;7397241;19;1849;-73
2023/12/25 10:43:53;;;;;;;;;;;18.10;58.20;;;;;;7401258;19;3291;-73
2023/12/25 10:46:20;;;;;;;;;;;18.10;58.20;;;;;;7399934;19;1503;-73
2023/12/25 10:48:49;;;;;;;;;;;18.10;58.20;;;;;;7398825;19;2303;-73
2023/12/25 10:51:17;;;;;;;;;;;18.10;58.10;;;;;;7399864;19;1845;-73
2023/12/25 10:53:42;;;;;;;;;;;18.20;58.10;;;;;;7398378;19;1716;-73
2023/12/25 10:56:08;;;;;;;;;;;18.20;57.90;;;;;;7398254;19;1747;-73
2023/12/25 10:58:33;;;;;;;;;;;18.30;57.80;;;;;;7398138;19;1554;-72
2023/12/25 11:01:00;;;;;;;;;;;18.30;57.70;;;;;;7396658;19;1853;-73
2023/12/25 11:06:28;;;;;;;;;;;18.30;57.60;;;;;;7399534;19;2584;-73
2023/12/25 11:08:54;;;;;;;;;;;18.30;57.70;;;;;;7393378;19;2010;-72
2023/12/25 11:11:19;;;;;;;;;;;18.30;57.70;;;;;;7398356;19;1562;-73
2023/12/25 11:13:44;;;;;;;;;;;18.40;57.90;;;;;;7398534;19;1591;-73
2023/12/25 11:16:10;;;;;;;;;;;18.40;57.70;;;;;;7396841;19;1532;-72
2023/12/25 11:18:37;;;;;;;;;;;18.40;57.70;;;;;;7394837;19;1864;-72
2023/12/25 11:21:19;;;;;;;;;;;18.30;57.80;;;;;;7397070;19;2267;-73
2023/12/25 11:23:45;;;;;;;;;;;18.20;57.90;;;;;;7398513;19;1966;-72
2023/12/25 11:26:11;;;;;;;;;;;18.20;58.00;;;;;;7397769;19;1606;-72
2023/12/25 11:28:37;;;;;;;;;;;18.20;58.10;;;;;;7396247;19;1552;-72
2023/12/25 11:31:02;;;;;;;;;;;18.20;58.10;;;;;;7398072;19;1755;-73
2023/12/25 11:33:28;;;;;;;;;;;18.20;58.20;;;;;;7396566;19;1538;-73
2023/12/25 11:35:54;;;;;;;;;;;18.10;58.20;;;;;;7398782;19;1634;-73
2023/12/25 11:38:19;;;;;;;;;;;18.10;58.30;;;;;;7398233;19;1272;-73
2023/12/25 11:40:45;;;;;;;;;;;18.10;58.30;;;;;;7395956;19;1858;-72
2023/12/25 11:43:10;;;;;;;;;;;18.10;58.40;;;;;;7396672;19;1563;-73
2023/12/25 11:45:42;;;;;;;;;;;18.10;58.50;;;;;;7395778;19;1631;-72
2023/12/25 11:48:10;;;;;;;;;;;18.10;58.40;;;;;;7397201;19;1661;-73
2023/12/25 11:50:36;;;;;;;;;;;18.10;58.20;;;;;;7394905;19;1359;-73
2023/12/25 11:53:01;;;;;;;;;;;18.30;58.00;;;;;;7397290;19;1617;-73
2023/12/25 11:55:27;;;;;;;;;;;18.40;57.80;;;;;;7396566;19;2790;-73
2023/12/25 11:57:52;;;;;;;;;;;18.50;57.60;;;;;;7385947;19;6678;-73
2023/12/25 12:00:21;;;;;;;;;;;18.60;57.40;;;;;;7395383;19;2785;-73
2023/12/25 12:02:47;;;;;;;;;;;18.70;57.30;;;;;;7394988;19;3778;-73
2023/12/25 12:05:12;;;;;;;;;;;18.80;57.20;;;;;;7396740;19;2739;-73
2023/12/25 12:07:38;;;;;;;;;;;18.80;57.20;;;;;;7393814;19;2479;-73
2023/12/25 12:10:04;;;;;;;;;;;18.90;56.90;;;;;;7397691;19;1305;-73
2023/12/25 12:12:29;;;;;;;;;;;19.00;56.80;;;;;;7397169;19;1576;-73
2023/12/25 12:14:54;;;;;;;;;;;19.10;56.60;;;;;;7398448;19;1728;-73
2023/12/25 12:17:21;;;;;;;;;;;19.10;56.40;;;;;;7394920;19;1743;-73
2023/12/25 12:19:46;;;;;;;;;;;19.20;56.40;;;;;;7395325;19;1858;-73
2023/12/25 12:22:11;;;;;;;;;;;19.30;56.40;;;;;;7396982;19;1528;-73
2023/12/25 12:24:37;;;;;;;;;;;19.30;56.40;;;;;;7394113;19;1531;-73
2023/12/25 12:27:03;;;;;;;;;;;19.20;56.50;;;;;;7396066;19;1802;-73
2023/12/25 12:29:29;;;;;;;;;;;19.20;56.60;;;;;;7396654;19;1566;-73
2023/12/25 12:31:54;;;;;;;;;;;19.10;56.50;;;;;;7394345;19;1543;-73
2023/12/25 12:34:20;;;;;;;;;;;19.00;56.70;;;;;;7390764;19;1567;-73
2023/12/25 12:36:58;;;;;;;;;;;19.00;56.70;;;;;;7391417;19;1749;-73
2023/12/25 12:39:24;;;;;;;;;;;19.00;56.90;;;;;;7391019;19;2123;-72
2023/12/25 12:41:50;;;;;;;;;;;18.90;56.90;;;;;;7393480;19;1854;-73
2023/12/25 12:44:15;;;;;;;;;;;18.90;57.10;;;;;;7391244;19;1650;-72
2023/12/25 12:46:40;;;;;;;;;;;18.90;57.00;;;;;;7389906;19;2807;-73
2023/12/25 12:49:06;;;;;;;;;;;18.90;57.10;;;;;;7392385;19;1861;-72
2023/12/25 12:51:31;;;;;;;;;;;18.90;57.80;;;;;;7391124;19;1508;-73
2023/12/25 12:53:57;;;;;;;;;;;18.90;57.20;;;;;;7390833;19;2482;-73
2023/12/25 12:56:22;;;;;;;;;;;18.90;57.30;;;;;;7391287;19;1919;-73
2023/12/25 12:58:48;;;;;;;;;;;18.90;57.20;;;;;;7391281;19;1528;-73
2023/12/25 13:01:15;;;;;;;;;;;18.90;57.20;;;;;;7387753;19;3342;-73
2023/12/25 13:03:41;;;;;;;;;;;18.90;57.30;;;;;;7390494;19;2077;-73
2023/12/25 13:06:07;;;;;;;;;;;18.90;57.30;;;;;;7389746;19;1661;-73
2023/12/25 13:08:32;;;;;;;;;;;18.90;57.20;;;;;;7386300;19;2516;-72
2023/12/25 13:10:58;;;;;;;;;;;18.90;57.20;;;;;;7392084;19;1575;-72
2023/12/25 13:13:23;;;;;;;;;;;19.00;57.20;;;;;;7393250;19;1568;-73
2023/12/25 13:15:48;;;;;;;;;;;19.00;57.00;;;;;;7394859;19;1519;-73
2023/12/25 13:18:14;;;;;;;;;;;19.10;57.00;;;;;;7393344;19;1535;-73
2023/12/25 13:20:39;;;;;;;;;;;19.10;56.80;;;;;;7392556;19;1880;-73
2023/12/25 13:23:05;;;;;;;;;;;19.10;56.80;;;;;;7392391;19;1881;-73
2023/12/25 13:25:30;;;;;;;;;;;19.20;56.70;;;;;;7393242;19;1623;-73
2023/12/25 13:27:55;;;;;;;;;;;19.20;56.70;;;;;;7392886;19;1559;-73
2023/12/25 13:30:21;;;;;;;;;;;19.30;56.60;;;;;;7395199;19;1457;-73
2023/12/25 13:32:46;;;;;;;;;;;19.30;56.50;;;;;;7393811;19;1670;-73
2023/12/25 13:35:12;;;;;;;;;;;19.40;56.50;;;;;;7392254;19;1642;-73
2023/12/25 13:37:37;;;;;;;;;;;19.40;56.40;;;;;;7394298;19;1553;-73
2023/12/25 13:40:06;;;;;;;;;;;19.50;56.30;;;;;;7394742;19;1841;-73
2023/12/25 13:42:31;;;;;;;;;;;19.60;56.20;;;;;;7390868;19;819;-73
2023/12/25 13:44:57;;;;;;;;;;;19.70;56.10;;;;;;7394649;19;3525;-73
2023/12/25 13:47:23;;;;;;;;;;;19.70;55.90;;;;;;7399666;19;1518;-75
2023/12/25 13:49:48;;;;;;;;;;;19.70;55.90;;;;;;7399070;19;2680;-75
2023/12/25 13:52:14;;;;;;;;;;;19.80;55.70;;;;;;7391331;19;4211;-74
2023/12/25 13:54:39;;;;;;;;;;;19.80;55.60;;;;;;7404650;19;1493;-74
2023/12/25 13:57:05;;;;;;;;;;;19.70;55.60;;;;;;7400745;19;1356;-74
2023/12/25 13:59:30;;;;;;;;;;;19.70;55.40;;;;;;7392859;19;4058;-73
2023/12/25 14:01:55;;;;;;;;;;;19.70;55.60;;;;;;7378278;19;3637;-73
2023/12/25 14:04:21;;;;;;;;;;;19.80;55.70;;;;;;7385156;19;4140;-74
2023/12/25 14:06:46;;;;;;;;;;;19.80;55.70;;;;;;7385093;19;4232;-74
2023/12/25 14:09:12;;;;;;;;;;;19.70;55.70;;;;;;7389980;19;2934;-74
2023/12/25 14:11:37;;;;;;;;;;;19.80;55.90;;;;;;7392811;19;4228;-74
2023/12/25 14:14:03;;;;;;;;;;;19.80;55.70;;;;;;7397335;19;4918;-74
2023/12/25 14:16:28;;;;;;;;;;;19.80;55.60;;;;;;7398137;19;4411;-74
2023/12/25 14:18:54;;;;;;;;;;;19.70;54.80;;;;;;7395472;19;4202;-74
2023/12/25 14:21:19;;;;;;;;;;;19.60;54.60;;;;;;7394851;19;4356;-74
2023/12/25 14:23:44;;;;;;;;;;;19.50;54.60;;;;;;7398807;19;2859;-74
2023/12/25 14:26:10;;;;;;;;;;;19.40;54.50;;;;;;7397871;19;3392;-73